createdAt,value
2023-01-29T00:02:06.253Z,38.85
2023-01-29T00:04:33.046Z,33.97
2023-01-29T00:07:00.127Z,42.42
2023-01-29T00:09:27.915Z,44.97
2023-01-29T00:11:54.359Z,39.60
2023-01-29T00:14:21.355Z,43.08
2023-01-29T00:16:47.699Z,41.13
2023-01-29T00:19:14.240Z,42.80
2023-01-29T00:21:40.579Z,40.20
2023-01-29T00:24:07.182Z,38.28
2023-01-29T00:26:33.572Z,39.30
2023-01-29T00:29:02.787Z,35.00
2023-01-29T00:31:29.615Z,34.92
2023-01-29T00:33:56.711Z,35.58
2023-01-29T00:36:23.712Z,34.22
2023-01-29T00:38:59.244Z,36.92
2023-01-29T00:41:50.016Z,38.20
2023-01-29T00:44:36.342Z,35.03
2023-01-29T00:47:04.245Z,33.97
2023-01-29T00:49:30.646Z,33.28
2023-01-29T00:52:18.110Z,33.25
2023-01-29T00:54:44.467Z,36.45
2023-01-29T00:57:10.963Z,32.92
2023-01-29T00:59:37.339Z,32.92
2023-01-29T01:02:22.454Z,31.35
2023-01-29T01:04:48.920Z,34.00
2023-01-29T01:07:15.291Z,36.17
2023-01-29T01:10:00.168Z,37.20
2023-01-29T01:12:28.289Z,32.30
2023-01-29T01:14:54.682Z,34.30
2023-01-29T01:17:21.207Z,35.20
2023-01-29T01:19:47.614Z,33.22
2023-01-29T01:22:14.117Z,40.85
2023-01-29T01:24:40.565Z,33.63
2023-01-29T01:27:07.111Z,31.88
2023-01-29T01:29:33.535Z,32.00
2023-01-29T01:32:00.099Z,34.33
2023-01-29T01:34:29.651Z,34.92
2023-01-29T01:36:56.301Z,35.35
2023-01-29T01:39:24.169Z,36.45
2023-01-29T01:41:53.472Z,34.22
2023-01-29T01:44:52.407Z,35.47
2023-01-29T01:47:30.905Z,38.13
2023-01-29T01:50:02.587Z,34.63
2023-01-29T01:52:31.720Z,33.15
2023-01-29T01:54:59.448Z,33.35
2023-01-29T01:57:29.699Z,36.17
2023-01-29T02:00:10.634Z,37.50
2023-01-29T02:03:00.393Z,38.90
2023-01-29T02:05:47.695Z,38.88
2023-01-29T02:08:34.091Z,35.22
2023-01-29T02:11:01.068Z,35.35
2023-01-29T02:13:27.434Z,37.00
2023-01-29T02:15:53.905Z,35.20
2023-01-29T02:18:21.524Z,37.65
2023-01-29T02:21:29.037Z,37.20
2023-01-29T02:27:05.307Z,34.15
2023-01-29T02:29:40.612Z,32.83
2023-01-29T02:35:10.510Z,36.38
2023-01-29T02:37:45.384Z,36.03
2023-01-29T02:40:23.829Z,34.25
2023-01-29T02:43:05.628Z,36.03
2023-01-29T02:45:58.388Z,34.67
2023-01-29T02:48:27.524Z,38.38
2023-01-29T02:51:03.203Z,33.40
2023-01-29T02:53:38.170Z,36.15
2023-01-29T02:56:22.384Z,35.97
2023-01-29T02:59:01.956Z,36.13
2023-01-29T03:01:35.098Z,35.47
2023-01-29T03:04:10.291Z,36.90
2023-01-29T03:06:46.233Z,36.42
2023-01-29T03:09:31.488Z,37.72
2023-01-29T03:12:19.919Z,37.72
2023-01-29T03:15:09.377Z,38.50
2023-01-29T03:17:41.792Z,38.65
2023-01-29T03:20:14.609Z,42.78
2023-01-29T03:22:46.234Z,36.15
2023-01-29T03:25:34.373Z,40.22
2023-01-29T03:28:22.826Z,37.38
2023-01-29T03:31:14.957Z,35.38
2023-01-29T03:33:50.477Z,37.30
2023-01-29T03:36:27.229Z,35.78
2023-01-29T03:38:53.872Z,39.45
2023-01-29T03:41:35.716Z,38.67
2023-01-29T03:44:32.945Z,35.88
2023-01-29T03:47:28.571Z,36.83
2023-01-29T03:49:54.908Z,38.10
2023-01-29T03:52:46.123Z,37.40
2023-01-29T03:55:18.382Z,34.92
2023-01-29T03:58:12.971Z,38.63
2023-01-29T04:00:44.983Z,36.05
2023-01-29T04:03:23.012Z,39.75
2023-01-29T04:05:58.487Z,37.50
2023-01-29T04:08:34.764Z,31.27
2023-01-29T04:11:09.754Z,35.92
2023-01-29T04:13:36.554Z,35.53
2023-01-29T04:16:06.669Z,34.65
2023-01-29T04:18:55.379Z,35.92
2023-01-29T04:21:27.640Z,36.53
2023-01-29T04:23:54.270Z,34.08
2023-01-29T04:26:40.797Z,40.15
2023-01-29T04:29:27.870Z,35.10
2023-01-29T04:32:03.341Z,38.47
2023-01-29T04:34:44.033Z,40.95
2023-01-29T04:37:20.835Z,40.10
2023-01-29T04:40:11.973Z,36.55
2023-01-29T04:42:49.360Z,35.75
2023-01-29T04:45:28.575Z,37.33
2023-01-29T04:48:10.271Z,36.78
2023-01-29T04:50:44.261Z,35.70
2023-01-29T04:53:23.745Z,39.17
2023-01-29T04:55:59.519Z,39.55
2023-01-29T04:58:34.797Z,36.85
2023-01-29T05:01:06.506Z,37.13
2023-01-29T05:03:36.122Z,34.53
2023-01-29T05:06:03.111Z,39.35
2023-01-29T05:08:31.233Z,39.05
2023-01-29T05:10:59.484Z,38.63
2023-01-29T05:13:29.381Z,43.88
2023-01-29T05:16:04.910Z,33.75
2023-01-29T05:18:32.158Z,38.95
2023-01-29T05:21:04.533Z,37.50
2023-01-29T05:23:31.029Z,36.22
2023-01-29T05:25:57.704Z,41.35
2023-01-29T05:28:24.244Z,37.38
2023-01-29T05:30:53.592Z,41.97
2023-01-29T05:33:26.185Z,33.97
2023-01-29T05:35:53.144Z,33.63
2023-01-29T05:38:20.419Z,33.95
2023-01-29T05:40:46.861Z,37.67
2023-01-29T05:43:21.038Z,35.08
2023-01-29T05:46:01.675Z,40.88
2023-01-29T05:48:29.470Z,35.00
2023-01-29T05:51:03.541Z,36.38
2023-01-29T05:53:30.929Z,36.67
2023-01-29T05:56:00.619Z,39.28
2023-01-29T05:58:27.046Z,38.17
2023-01-29T06:00:53.414Z,35.25
2023-01-29T06:03:19.862Z,39.63
2023-01-29T06:05:46.199Z,38.65
2023-01-29T06:08:13.151Z,37.50
2023-01-29T06:10:39.528Z,35.40
2023-01-29T06:13:06.856Z,36.80
2023-01-29T06:15:33.316Z,38.80
2023-01-29T06:17:59.712Z,35.00
2023-01-29T06:20:26.420Z,37.50
2023-01-29T06:22:52.767Z,37.88
2023-01-29T06:25:19.124Z,35.95
2023-01-29T06:27:45.455Z,39.97
2023-01-29T06:30:12.293Z,36.83
2023-01-29T06:32:38.739Z,36.28
2023-01-29T06:35:05.607Z,41.30
2023-01-29T06:37:31.941Z,37.28
2023-01-29T06:39:58.298Z,37.65
2023-01-29T06:42:27.827Z,37.05
2023-01-29T06:44:55.678Z,37.90
2023-01-29T06:47:22.739Z,36.90
2023-01-29T06:49:49.743Z,35.20
2023-01-29T06:52:16.231Z,39.20
2023-01-29T06:54:42.820Z,36.97
2023-01-29T06:57:09.216Z,36.88
2023-01-29T06:59:35.544Z,43.50
2023-01-29T07:02:03.682Z,39.85
2023-01-29T07:04:30.142Z,35.42
2023-01-29T07:06:56.504Z,41.00
2023-01-29T07:09:22.890Z,37.95
2023-01-29T07:11:49.544Z,42.33
2023-01-29T07:14:16.034Z,37.63
2023-01-29T07:16:42.435Z,39.92
2023-01-29T07:19:08.867Z,41.75
2023-01-29T07:21:35.399Z,38.95
2023-01-29T07:24:01.774Z,39.35
2023-01-29T07:26:28.165Z,41.25
2023-01-29T07:28:54.651Z,41.55
2023-01-29T07:31:21.531Z,41.55
2023-01-29T07:33:48.066Z,37.63
2023-01-29T07:36:14.904Z,39.35
2023-01-29T07:38:41.397Z,40.08
2023-01-29T07:41:09.150Z,38.53
2023-01-29T07:43:35.771Z,39.13
2023-01-29T07:46:04.022Z,39.55
2023-01-29T07:48:30.439Z,43.47
2023-01-29T07:50:57.121Z,39.95
2023-01-29T07:53:23.522Z,40.42
2023-01-29T07:55:50.465Z,41.28
2023-01-29T07:58:16.995Z,44.25
2023-01-29T08:00:43.669Z,39.22
2023-01-29T08:03:16.129Z,43.78
2023-01-29T08:05:43.756Z,39.42
2023-01-29T08:08:10.664Z,41.55
2023-01-29T08:10:38.404Z,39.88
2023-01-29T08:13:05.680Z,40.47
2023-01-29T08:15:32.892Z,42.63
2023-01-29T08:18:01.146Z,41.75
2023-01-29T08:20:27.927Z,48.00
2023-01-29T08:23:06.111Z,44.10
2023-01-29T08:25:32.821Z,43.78
2023-01-29T08:28:00.689Z,41.65
2023-01-29T08:30:31.646Z,37.03
2023-01-29T08:32:58.298Z,43.65
2023-01-29T08:35:25.347Z,44.17
2023-01-29T08:37:56.277Z,45.15
2023-01-29T08:40:22.814Z,45.47
2023-01-29T08:42:49.195Z,42.00
2023-01-29T08:45:16.088Z,41.63
2023-01-29T08:47:49.913Z,61.28
2023-01-29T08:50:18.177Z,42.50
2023-01-29T08:52:45.872Z,46.55
2023-01-29T08:55:12.935Z,43.90
2023-01-29T08:57:39.560Z,45.90
2023-01-29T09:00:09.228Z,44.40
2023-01-29T09:02:35.704Z,49.33
2023-01-29T09:05:02.095Z,46.78
2023-01-29T09:07:29.563Z,48.95
2023-01-29T09:09:55.958Z,46.00
2023-01-29T09:12:22.397Z,48.13
2023-01-29T09:14:48.762Z,46.15
2023-01-29T09:17:15.404Z,46.08
2023-01-29T09:19:41.866Z,50.50
2023-01-29T09:22:09.456Z,49.38
2023-01-29T09:27:04.998Z,48.78
2023-01-29T09:29:32.284Z,49.42
2023-01-29T09:31:59.450Z,45.92
2023-01-29T09:34:25.830Z,50.30
2023-01-29T09:36:52.740Z,44.70
2023-01-29T09:39:19.102Z,51.50
2023-01-29T09:41:55.059Z,46.80
2023-01-29T09:44:33.863Z,46.92
2023-01-29T09:47:04.872Z,50.08
2023-01-29T09:49:37.683Z,45.10
2023-01-29T09:52:14.718Z,44.90
2023-01-29T09:54:56.373Z,47.78
2023-01-29T09:57:28.753Z,41.72
2023-01-29T09:59:55.318Z,47.17
2023-01-29T10:02:40.444Z,49.45
2023-01-29T10:05:24.823Z,49.22
2023-01-29T10:08:18.892Z,44.33
2023-01-29T10:11:04.849Z,49.15
2023-01-29T10:14:00.490Z,44.45
2023-01-29T10:17:03.295Z,45.42
2023-01-29T10:19:41.799Z,46.17
2023-01-29T10:22:13.853Z,42.65
2023-01-29T10:24:51.843Z,43.03
2023-01-29T10:27:19.118Z,45.38
2023-01-29T10:29:48.598Z,44.08
2023-01-29T10:32:21.643Z,46.13
2023-01-29T10:34:53.789Z,44.95
2023-01-29T10:37:39.286Z,45.42
2023-01-29T10:40:36.936Z,43.40
2023-01-29T10:43:50.853Z,43.90
2023-01-29T10:46:50.090Z,40.42
2023-01-29T10:49:47.192Z,46.60
2023-01-29T10:52:31.806Z,44.67
2023-01-29T10:55:21.286Z,44.13
2023-01-29T10:57:53.592Z,40.78
2023-01-29T11:00:26.417Z,43.97
2023-01-29T11:02:53.137Z,43.20
2023-01-29T11:05:27.613Z,48.97
2023-01-29T11:08:12.128Z,45.28
2023-01-29T11:10:45.617Z,48.55
2023-01-29T11:13:15.305Z,46.42
2023-01-29T11:15:41.773Z,50.15
2023-01-29T11:18:13.897Z,47.40
2023-01-29T11:20:42.307Z,46.85
2023-01-29T11:23:34.826Z,47.20
2023-01-29T11:26:12.922Z,45.60
2023-01-29T11:28:50.356Z,47.70
2023-01-29T11:31:22.856Z,47.17
2023-01-29T11:33:53.507Z,46.92
2023-01-29T11:36:22.056Z,52.08
2023-01-29T11:39:10.380Z,50.38
2023-01-29T11:41:45.428Z,43.60
2023-01-29T11:44:33.018Z,48.70
2023-01-29T11:47:16.342Z,46.17
2023-01-29T11:49:51.406Z,52.80
2023-01-29T11:52:23.499Z,51.20
2023-01-29T11:54:55.200Z,46.58
2023-01-29T11:57:27.625Z,46.97
2023-01-29T11:59:56.468Z,40.20
2023-01-29T12:02:38.670Z,46.17
2023-01-29T12:05:26.450Z,46.95
2023-01-29T12:07:56.193Z,42.22
2023-01-29T12:10:36.043Z,47.75
2023-01-29T12:13:21.088Z,45.53
2023-01-29T12:15:49.015Z,45.15
2023-01-29T12:18:35.075Z,45.70
2023-01-29T12:21:10.356Z,49.65
2023-01-29T12:23:50.244Z,47.15
2023-01-29T12:26:24.387Z,47.65
2023-01-29T12:29:14.932Z,51.45
2023-01-29T12:31:59.695Z,45.53
2023-01-29T12:34:46.174Z,44.00
2023-01-29T12:37:45.812Z,45.75
2023-01-29T12:40:16.176Z,48.38
2023-01-29T12:42:53.157Z,46.92
2023-01-29T12:45:22.483Z,46.65
2023-01-29T12:47:51.420Z,47.92
2023-01-29T12:50:26.576Z,39.78
2023-01-29T12:52:58.511Z,47.22
2023-01-29T12:55:39.342Z,44.55
2023-01-29T12:58:28.523Z,47.85
2023-01-29T13:01:00.867Z,41.55
2023-01-29T13:03:46.328Z,48.15
2023-01-29T13:06:17.793Z,41.80
2023-01-29T13:09:00.683Z,48.85
2023-01-29T13:11:36.517Z,45.78
2023-01-29T13:14:26.334Z,46.83
2023-01-29T13:17:02.692Z,42.70
2023-01-29T13:19:38.233Z,42.78
2023-01-29T13:22:15.946Z,45.28
2023-01-29T13:24:47.834Z,47.35
2023-01-29T13:27:28.413Z,44.60
2023-01-29T13:29:56.232Z,45.35
2023-01-29T13:32:34.824Z,41.90
2023-01-29T13:35:12.893Z,45.05
2023-01-29T13:37:48.962Z,46.08
2023-01-29T13:40:34.726Z,48.08
2023-01-29T13:43:02.859Z,46.72
2023-01-29T13:45:45.452Z,47.08
2023-01-29T13:48:26.548Z,49.00
2023-01-29T13:50:56.237Z,58.35
2023-01-29T13:53:54.558Z,53.08
2023-01-29T13:56:33.184Z,45.05
2023-01-29T13:59:01.780Z,44.10
2023-01-29T14:02:02.514Z,42.45
2023-01-29T14:04:30.895Z,49.80
2023-01-29T14:07:06.403Z,43.60
2023-01-29T14:09:38.805Z,46.10
2023-01-29T14:12:25.231Z,47.25
2023-01-29T14:15:16.863Z,43.15
2023-01-29T14:18:05.604Z,39.75
2023-01-29T14:20:45.854Z,45.13
2023-01-29T14:23:31.494Z,45.60
2023-01-29T14:26:02.401Z,43.10
2023-01-29T14:28:30.887Z,42.42
2023-01-29T14:30:58.002Z,45.83
2023-01-29T14:33:42.584Z,45.15
2023-01-29T14:36:14.250Z,45.75
2023-01-29T14:38:48.079Z,45.30
2023-01-29T14:41:27.045Z,44.78
2023-01-29T14:44:32.184Z,43.95
2023-01-29T14:46:58.672Z,49.63
2023-01-29T14:49:48.363Z,47.78
2023-01-29T14:52:15.710Z,42.15
2023-01-29T14:54:43.139Z,49.17
2023-01-29T14:57:15.313Z,42.15
2023-01-29T14:59:56.234Z,43.63
2023-01-29T15:02:42.016Z,41.72
2023-01-29T15:05:16.833Z,41.70
2023-01-29T15:07:58.144Z,40.10
2023-01-29T15:10:42.376Z,36.15
2023-01-29T15:13:24.104Z,43.53
2023-01-29T15:16:04.412Z,40.88
2023-01-29T15:18:39.707Z,44.22
2023-01-29T15:21:14.255Z,40.67
2023-01-29T15:23:41.213Z,36.75
2023-01-29T15:26:16.052Z,40.50
2023-01-29T15:28:47.115Z,33.70
2023-01-29T15:31:21.211Z,37.78
2023-01-29T15:33:52.167Z,33.40
2023-01-29T15:36:22.316Z,31.92
2023-01-29T15:38:48.837Z,28.55
2023-01-29T15:41:19.711Z,30.63
2023-01-29T15:43:48.669Z,27.98
2023-01-29T15:48:50.091Z,30.92
2023-01-29T15:51:20.236Z,31.63
2023-01-29T15:54:02.175Z,30.15
2023-01-29T15:56:41.270Z,25.08
2023-01-29T15:59:13.396Z,33.05
2023-01-29T16:01:39.768Z,29.38
2023-01-29T16:04:12.900Z,26.40
2023-01-29T16:06:41.074Z,27.60
2023-01-29T16:09:08.340Z,28.25
2023-01-29T16:11:35.677Z,29.85
2023-01-29T16:14:03.534Z,27.05
2023-01-29T16:16:30.149Z,25.52
2023-01-29T16:19:01.258Z,25.70
2023-01-29T16:21:35.445Z,25.95
2023-01-29T16:24:19.595Z,22.65
2023-01-29T16:26:49.252Z,24.88
2023-01-29T16:29:23.288Z,27.05
2023-01-29T16:31:53.173Z,27.23
2023-01-29T16:34:32.769Z,28.83
2023-01-29T16:37:02.318Z,27.85
2023-01-29T16:39:38.381Z,25.73
2023-01-29T16:42:12.100Z,29.02
2023-01-29T16:44:39.955Z,27.83
2023-01-29T16:47:12.875Z,30.40
2023-01-29T16:49:39.228Z,30.80
2023-01-29T16:52:20.181Z,30.73
2023-01-29T16:54:46.647Z,28.65
2023-01-29T16:57:29.566Z,32.47
2023-01-29T17:00:00.135Z,30.80
2023-01-29T17:02:30.221Z,31.00
2023-01-29T17:05:01.709Z,29.00
2023-01-29T17:07:29.420Z,29.90
2023-01-29T17:10:00.906Z,32.47
2023-01-29T17:12:29.771Z,30.52
2023-01-29T17:15:02.008Z,24.85
2023-01-29T17:17:34.636Z,30.95
2023-01-29T17:20:15.306Z,32.63
2023-01-29T17:22:42.241Z,32.20
2023-01-29T17:25:18.655Z,30.02
2023-01-29T17:27:51.368Z,30.25
2023-01-29T17:30:20.750Z,30.73
2023-01-29T17:32:47.600Z,32.65
2023-01-29T17:35:16.115Z,30.08
2023-01-29T17:37:42.729Z,27.17
2023-01-29T17:40:39.275Z,30.85
2023-01-29T17:43:06.827Z,30.63
2023-01-29T17:45:33.944Z,31.20
2023-01-29T17:48:00.358Z,26.52
2023-01-29T17:50:30.116Z,27.02
2023-01-29T17:52:56.554Z,28.58
2023-01-29T17:55:23.119Z,29.80
2023-01-29T17:57:49.615Z,29.70
2023-01-29T18:00:17.269Z,32.00
2023-01-29T18:02:43.647Z,30.42
2023-01-29T18:05:11.126Z,25.13
2023-01-29T18:07:39.413Z,31.35
2023-01-29T18:10:06.469Z,28.90
2023-01-29T18:12:32.901Z,29.05
2023-01-29T18:14:59.320Z,34.95
2023-01-29T18:17:25.902Z,29.52
2023-01-29T18:19:52.247Z,30.90
2023-01-29T18:22:18.590Z,29.17
2023-01-29T18:24:44.974Z,30.27
2023-01-29T18:27:11.574Z,27.85
2023-01-29T18:29:38.204Z,30.45
2023-01-29T18:32:04.882Z,27.50
2023-01-29T18:34:31.240Z,27.20
2023-01-29T18:36:58.976Z,29.02
2023-01-29T18:39:25.442Z,31.00
2023-01-29T18:41:51.909Z,26.20
2023-01-29T18:44:18.312Z,25.42
2023-01-29T18:46:44.657Z,27.42
2023-01-29T18:49:11.024Z,23.45
2023-01-29T18:51:37.456Z,24.15
2023-01-29T18:54:04.060Z,27.45
2023-01-29T18:56:30.465Z,27.35
2023-01-29T18:58:56.939Z,28.25
2023-01-29T19:01:23.964Z,27.00
2023-01-29T19:03:50.424Z,28.50
2023-01-29T19:06:17.059Z,24.50
2023-01-29T19:08:43.923Z,27.50
2023-01-29T19:11:12.360Z,32.67
2023-01-29T19:13:38.844Z,27.92
2023-01-29T19:16:09.672Z,32.50
2023-01-29T19:18:36.488Z,36.97
2023-01-29T19:21:07.644Z,42.85
2023-01-29T19:23:34.025Z,42.55
2023-01-29T19:26:00.433Z,40.78
2023-01-29T19:28:26.818Z,35.92
2023-01-29T19:30:57.127Z,42.70
2023-01-29T19:33:24.291Z,41.70
2023-01-29T19:35:50.682Z,37.63
2023-01-29T19:38:20.971Z,37.45
2023-01-29T19:40:48.371Z,35.75
2023-01-29T19:43:15.851Z,33.90
2023-01-29T19:45:49.467Z,31.02
2023-01-29T19:48:21.455Z,30.42
2023-01-29T19:50:52.479Z,28.05
2023-01-29T19:53:18.997Z,30.33
2023-01-29T19:55:45.326Z,26.65
2023-01-29T19:58:11.713Z,27.13
2023-01-29T20:00:38.077Z,29.80
2023-01-29T20:03:04.604Z,24.65
2023-01-29T20:05:30.982Z,23.08
2023-01-29T20:07:57.356Z,24.35
2023-01-29T20:10:23.694Z,24.27
2023-01-29T20:12:50.105Z,25.20
2023-01-29T20:15:16.481Z,26.63
2023-01-29T20:17:45.378Z,26.10
2023-01-29T20:20:12.010Z,27.50
2023-01-29T20:22:38.429Z,24.45
2023-01-29T20:25:05.186Z,29.23
2023-01-29T20:27:31.561Z,24.67
2023-01-29T20:29:58.155Z,27.08
2023-01-29T20:32:24.558Z,26.65
2023-01-29T20:34:52.100Z,27.20
2023-01-29T20:37:19.335Z,28.40
2023-01-29T20:39:45.915Z,30.73
2023-01-29T20:42:12.544Z,25.38
2023-01-29T20:44:38.986Z,25.80
2023-01-29T20:47:05.489Z,26.42
2023-01-29T20:49:32.014Z,27.35
2023-01-29T20:51:58.406Z,25.73
2023-01-29T20:54:24.957Z,24.83
2023-01-29T20:56:51.522Z,23.58
2023-01-29T20:59:18.034Z,24.75
2023-01-29T21:01:45.328Z,23.80
2023-01-29T21:04:11.772Z,23.77
2023-01-29T21:06:38.224Z,26.40
2023-01-29T21:09:04.628Z,26.00
2023-01-29T21:11:33.244Z,23.42
2023-01-29T21:13:59.662Z,23.80
2023-01-29T21:16:26.137Z,24.98
2023-01-29T21:18:55.637Z,23.13
2023-01-29T21:21:21.972Z,24.42
2023-01-29T21:23:48.929Z,28.38
2023-01-29T21:26:15.285Z,22.70
2023-01-29T21:28:41.661Z,24.75
2023-01-29T21:31:14.286Z,25.05
2023-01-29T21:33:40.665Z,25.00
2023-01-29T21:36:08.313Z,24.08
2023-01-29T21:38:34.684Z,26.70
2023-01-29T21:41:06.401Z,24.83
2023-01-29T21:43:33.034Z,22.85
2023-01-29T21:46:02.317Z,20.98
2023-01-29T21:48:28.681Z,19.15
2023-01-29T21:50:55.026Z,22.60
2023-01-29T21:53:21.435Z,24.33
2023-01-29T21:55:48.182Z,20.73
2023-01-29T21:58:14.880Z,21.20
2023-01-29T22:00:41.450Z,22.77
2023-01-29T22:03:07.994Z,20.75
2023-01-29T22:05:34.996Z,21.08
2023-01-29T22:08:01.508Z,20.88
2023-01-29T22:10:28.777Z,21.63
2023-01-29T22:12:55.609Z,23.20
2023-01-29T22:15:23.696Z,20.52
2023-01-29T22:17:50.786Z,19.88
2023-01-29T22:20:17.663Z,23.00
2023-01-29T22:22:44.351Z,25.17
2023-01-29T22:25:11.379Z,24.33
2023-01-29T22:27:37.886Z,23.17
2023-01-29T22:30:05.659Z,20.77
2023-01-29T22:32:32.688Z,24.85
2023-01-29T22:34:59.080Z,24.20
2023-01-29T22:37:25.517Z,23.70
2023-01-29T22:39:51.868Z,23.08
2023-01-29T22:42:20.487Z,21.80
2023-01-29T22:44:48.151Z,23.98
2023-01-29T22:47:14.824Z,24.48
2023-01-29T22:49:41.458Z,21.90
2023-01-29T22:52:10.429Z,24.13
2023-01-29T22:54:42.270Z,21.70
2023-01-29T22:57:11.544Z,24.95
2023-01-29T22:59:38.158Z,23.98
2023-01-29T23:02:05.501Z,24.80
2023-01-29T23:04:31.928Z,26.00
2023-01-29T23:06:58.364Z,23.75
2023-01-29T23:09:24.932Z,23.27
2023-01-29T23:11:51.368Z,25.23
2023-01-29T23:14:17.754Z,26.92
2023-01-29T23:16:44.123Z,23.88
2023-01-29T23:19:12.064Z,24.25
2023-01-29T23:21:39.628Z,26.95
2023-01-29T23:24:07.349Z,27.20
2023-01-29T23:26:52.079Z,26.65
2023-01-29T23:29:18.424Z,23.60
2023-01-29T23:31:44.933Z,25.63
2023-01-29T23:34:11.384Z,24.55
2023-01-29T23:36:37.820Z,25.35
2023-01-29T23:39:04.478Z,24.05
2023-01-29T23:41:30.805Z,26.38
2023-01-29T23:43:57.152Z,21.50
2023-01-29T23:46:23.637Z,25.88
2023-01-29T23:48:50.034Z,25.73
2023-01-29T23:51:16.460Z,22.48
2023-01-29T23:53:42.825Z,24.30
2023-01-29T23:56:10.271Z,23.48
2023-01-29T23:58:36.729Z,24.42
